createdAt,value
2019-05-10T00:00:36.057Z,10.40
2019-05-10T00:03:24.504Z,10.40
2019-05-10T00:06:12.707Z,10.40
2019-05-10T00:08:45.051Z,10.30
2019-05-10T00:11:40.756Z,10.30
2019-05-10T00:14:27.869Z,10.30
2019-05-10T00:17:12.332Z,10.30
2019-05-10T00:19:43.055Z,10.30
2019-05-10T00:22:14.431Z,10.30
2019-05-10T00:25:01.677Z,10.30
2019-05-10T00:27:19.173Z,10.40
2019-05-10T00:29:49.714Z,10.40
2019-05-10T00:32:20.188Z,10.50
2019-05-10T00:34:57.921Z,10.60
2019-05-10T00:37:28.889Z,10.70
2019-05-10T00:39:59.422Z,10.70
2019-05-10T00:42:30.775Z,10.80
2019-05-10T00:45:01.083Z,10.80
2019-05-10T00:47:31.647Z,10.90
2019-05-10T00:50:02.339Z,10.90
2019-05-10T00:52:33.727Z,11.00
2019-05-10T00:55:17.826Z,11.00
2019-05-10T00:57:36.847Z,11.00
2019-05-10T01:00:09.613Z,11.00
2019-05-10T01:02:40.987Z,11.10
2019-05-10T01:05:11.647Z,11.10
2019-05-10T01:07:42.055Z,11.10
2019-05-10T01:10:13.943Z,11.10
2019-05-10T01:12:43.951Z,11.10
2019-05-10T01:15:15.286Z,11.10
2019-05-10T01:17:46.173Z,11.10
2019-05-10T01:20:17.172Z,11.10
2019-05-10T01:22:48.121Z,11.00
2019-05-10T01:25:33.637Z,11.00
2019-05-10T01:27:50.824Z,10.90
2019-05-10T01:30:22.219Z,10.80
2019-05-10T01:32:53.236Z,10.70
2019-05-10T01:35:23.511Z,10.60
2019-05-10T01:37:54.540Z,10.50
2019-05-10T01:40:25.334Z,10.50
2019-05-10T01:42:56.274Z,10.40
2019-05-10T01:45:26.602Z,10.30
2019-05-10T01:47:57.756Z,10.20
2019-05-10T01:50:28.432Z,10.20
2019-05-10T01:52:59.226Z,10.10
2019-05-10T01:55:29.867Z,10.10
2019-05-10T01:58:00.047Z,10.10
2019-05-10T02:00:31.238Z,10.10
2019-05-10T02:03:02.627Z,10.10
2019-05-10T02:05:33.808Z,10.00
2019-05-10T02:08:05.510Z,10.00
2019-05-10T02:10:36.644Z,10.00
2019-05-10T02:13:07.386Z,10.00
2019-05-10T02:15:38.255Z,9.90
2019-05-10T02:18:09.277Z,9.90
2019-05-10T02:20:39.739Z,9.80
2019-05-10T02:23:10.542Z,9.80
2019-05-10T02:25:41.280Z,9.80
2019-05-10T02:28:12.176Z,9.70
2019-05-10T02:30:43.167Z,9.70
2019-05-10T02:33:14.529Z,9.60
2019-05-10T02:35:45.668Z,9.60
2019-05-10T02:38:17.041Z,9.50
2019-05-10T02:40:47.505Z,9.50
2019-05-10T02:43:18.440Z,9.40
2019-05-10T02:45:49.435Z,9.30
2019-05-10T02:48:19.927Z,9.30
2019-05-10T02:50:51.737Z,9.20
2019-05-10T02:53:23.711Z,9.10
2019-05-10T02:55:54.650Z,9.10
2019-05-10T02:58:25.990Z,9.10
2019-05-10T03:00:58.781Z,9.10
2019-05-10T03:03:32.447Z,9.10
2019-05-10T03:06:05.381Z,9.10
2019-05-10T03:08:49.835Z,9.10
2019-05-10T03:11:21.195Z,9.10
2019-05-10T03:13:52.965Z,9.10
2019-05-10T03:16:24.648Z,9.10
2019-05-10T03:18:56.709Z,9.10
2019-05-10T03:21:30.222Z,9.00
2019-05-10T03:24:00.377Z,9.00
2019-05-10T03:26:49.594Z,9.00
2019-05-10T03:29:05.180Z,8.90
2019-05-10T03:31:36.933Z,8.90
2019-05-10T03:34:07.370Z,8.80
2019-05-10T03:36:39.372Z,8.70
2019-05-10T03:39:09.716Z,8.70
2019-05-10T03:41:40.718Z,8.60
2019-05-10T03:44:11.800Z,8.60
2019-05-10T03:46:42.184Z,8.60
2019-05-10T03:49:12.505Z,8.60
2019-05-10T03:51:42.968Z,8.60
2019-05-10T03:54:13.992Z,8.50
2019-05-10T03:56:44.719Z,8.50
2019-05-10T03:59:15.001Z,8.50
2019-05-10T04:01:45.470Z,8.40
2019-05-10T04:04:16.525Z,8.40
2019-05-10T04:06:46.853Z,8.40
2019-05-10T04:09:17.601Z,8.40
2019-05-10T04:11:48.058Z,8.40
2019-05-10T04:14:18.970Z,8.40
2019-05-10T04:16:49.950Z,8.40
2019-05-10T04:19:20.558Z,8.40
2019-05-10T04:21:50.733Z,8.30
2019-05-10T04:24:22.034Z,8.40
2019-05-10T04:26:52.223Z,8.40
2019-05-10T04:29:22.888Z,8.40
2019-05-10T04:31:53.642Z,8.40
2019-05-10T04:34:24.151Z,8.50
2019-05-10T04:36:55.312Z,8.50
2019-05-10T04:39:25.642Z,8.50
2019-05-10T04:41:56.787Z,8.60
2019-05-10T04:44:27.108Z,8.60
2019-05-10T04:46:58.251Z,8.60
2019-05-10T04:49:29.209Z,8.60
2019-05-10T04:52:00.354Z,8.70
2019-05-10T04:54:30.707Z,8.70
2019-05-10T04:57:01.829Z,8.70
2019-05-10T04:59:33.385Z,8.80
2019-05-10T05:02:04.123Z,8.90
2019-05-10T05:04:34.688Z,9.00
2019-05-10T05:07:05.813Z,9.10
2019-05-10T05:09:36.945Z,9.20
2019-05-10T05:12:07.695Z,9.30
2019-05-10T05:14:38.500Z,9.40
2019-05-10T05:17:08.976Z,9.50
2019-05-10T05:19:40.952Z,9.60
2019-05-10T05:22:11.730Z,9.70
2019-05-10T05:24:43.011Z,9.80
2019-05-10T05:27:13.758Z,9.80
2019-05-10T05:29:45.061Z,9.90
2019-05-10T05:32:16.305Z,10.00
2019-05-10T05:34:47.822Z,10.00
2019-05-10T05:37:18.766Z,10.00
2019-05-10T05:39:50.129Z,10.10
2019-05-10T05:42:22.258Z,10.20
2019-05-10T05:44:53.642Z,10.20
2019-05-10T05:47:24.175Z,10.30
2019-05-10T05:49:54.906Z,10.40
2019-05-10T05:52:25.878Z,10.40
2019-05-10T05:54:57.550Z,10.40
2019-05-10T05:57:29.644Z,10.50
2019-05-10T06:00:04.254Z,10.60
2019-05-10T06:02:32.291Z,10.60
2019-05-10T06:05:03.029Z,10.70
2019-05-10T06:07:38.157Z,10.70
2019-05-10T06:10:10.354Z,10.80
2019-05-10T06:12:44.570Z,10.80
2019-05-10T06:15:13.935Z,10.90
2019-05-10T06:17:44.304Z,11.00
2019-05-10T06:20:15.397Z,11.00
2019-05-10T06:23:04.163Z,11.10
2019-05-10T06:25:28.193Z,11.10
2019-05-10T06:27:51.341Z,11.10
2019-05-10T06:30:23.580Z,11.20
2019-05-10T06:33:00.420Z,11.30
2019-05-10T06:35:27.049Z,11.30
2019-05-10T06:37:57.909Z,11.40
2019-05-10T06:40:35.656Z,11.50
2019-05-10T06:43:00.775Z,11.50
2019-05-10T06:45:31.837Z,11.60
2019-05-10T06:48:02.308Z,11.60
2019-05-10T06:50:32.906Z,11.70
2019-05-10T06:53:07.995Z,11.70
2019-05-10T06:55:36.581Z,11.70
2019-05-10T06:58:07.781Z,11.80
2019-05-10T07:00:43.918Z,11.90
2019-05-10T07:03:12.135Z,12.00
2019-05-10T07:05:42.225Z,12.10
2019-05-10T07:08:19.514Z,12.10
2019-05-10T07:10:44.556Z,12.20
2019-05-10T07:13:15.147Z,12.20
2019-05-10T07:15:45.366Z,12.30
2019-05-10T07:18:16.686Z,12.30
2019-05-10T07:20:47.704Z,12.40
2019-05-10T07:23:17.992Z,12.40
2019-05-10T07:25:49.136Z,12.40
2019-05-10T07:28:19.920Z,12.50
2019-05-10T07:30:50.459Z,12.50
2019-05-10T07:33:21.398Z,12.60
2019-05-10T07:35:52.397Z,12.70
2019-05-10T07:38:30.538Z,12.80
2019-05-10T07:40:56.271Z,12.90
2019-05-10T07:43:28.982Z,12.90
2019-05-10T07:46:06.341Z,13.00
2019-05-10T07:48:33.204Z,13.00
2019-05-10T07:51:03.277Z,13.10
2019-05-10T07:53:33.868Z,13.10
2019-05-10T07:56:06.266Z,13.20
2019-05-10T07:58:38.131Z,13.20
2019-05-10T08:01:10.122Z,13.30
2019-05-10T08:03:47.947Z,13.40
2019-05-10T08:06:15.339Z,13.50
2019-05-10T08:08:45.861Z,13.60
2019-05-10T08:11:18.965Z,13.60
2019-05-10T08:13:48.845Z,13.60
2019-05-10T08:16:22.781Z,13.70
2019-05-10T08:18:55.814Z,13.90
2019-05-10T08:21:26.480Z,14.00
2019-05-10T08:23:58.983Z,14.10
2019-05-10T08:26:29.216Z,14.20
2019-05-10T08:29:01.980Z,14.30
2019-05-10T08:31:40.704Z,14.40
2019-05-10T08:34:05.124Z,14.50
2019-05-10T08:36:37.221Z,14.60
2019-05-10T08:39:10.847Z,14.80
2019-05-10T08:41:42.750Z,14.90
2019-05-10T08:44:19.505Z,15.00
2019-05-10T08:46:45.783Z,15.10
2019-05-10T08:49:22.105Z,15.10
2019-05-10T08:51:49.541Z,15.10
2019-05-10T08:54:22.512Z,15.10
2019-05-10T08:57:00.990Z,15.10
2019-05-10T08:59:30.694Z,15.20
2019-05-10T09:02:02.130Z,15.40
2019-05-10T09:04:42.258Z,15.40
2019-05-10T09:07:05.005Z,15.50
2019-05-10T09:09:45.454Z,15.60
2019-05-10T09:12:09.338Z,15.60
2019-05-10T09:14:42.532Z,15.80
2019-05-10T09:17:17.150Z,16.20
2019-05-10T09:19:44.621Z,16.40
2019-05-10T09:22:15.653Z,16.40
2019-05-10T09:24:48.699Z,16.20
2019-05-10T09:27:18.643Z,16.20
2019-05-10T09:29:49.647Z,16.70
2019-05-10T09:32:21.430Z,17.40
2019-05-10T09:34:54.414Z,18.20
2019-05-10T09:37:25.335Z,18.00
2019-05-10T09:40:05.546Z,18.40
2019-05-10T09:42:34.755Z,19.40
2019-05-10T09:45:03.070Z,20.40
2019-05-10T09:47:33.222Z,20.40
2019-05-10T09:50:04.043Z,21.10
2019-05-10T09:52:35.297Z,21.80
2019-05-10T09:55:10.161Z,21.90
2019-05-10T09:57:39.648Z,21.60
2019-05-10T10:00:12.209Z,20.80
2019-05-10T10:02:47.752Z,19.80
2019-05-10T10:05:17.862Z,19.50
2019-05-10T10:07:48.526Z,19.80
2019-05-10T10:10:28.478Z,20.20
2019-05-10T10:12:51.990Z,20.60
2019-05-10T10:15:32.184Z,20.30
2019-05-10T10:17:55.379Z,20.30
2019-05-10T10:20:25.549Z,20.40
2019-05-10T10:22:55.631Z,20.50
2019-05-10T10:25:29.462Z,20.00
2019-05-10T10:27:58.730Z,19.80
2019-05-10T10:30:31.507Z,19.70
2019-05-10T10:33:05.618Z,19.80
2019-05-10T10:35:37.913Z,20.00
2019-05-10T10:38:08.855Z,20.90
2019-05-10T10:40:44.685Z,21.80
2019-05-10T10:43:13.821Z,20.90
2019-05-10T10:45:44.560Z,20.00
2019-05-10T10:48:15.040Z,20.70
2019-05-10T10:50:53.839Z,21.70
2019-05-10T10:53:19.024Z,22.50
2019-05-10T10:55:54.431Z,22.40
2019-05-10T10:58:22.550Z,22.10
2019-05-10T11:00:52.526Z,21.60
2019-05-10T11:03:23.928Z,22.00
2019-05-10T11:05:55.523Z,22.50
2019-05-10T11:08:26.118Z,22.70
2019-05-10T11:10:56.351Z,23.30
2019-05-10T11:13:41.520Z,24.00
2019-05-10T11:16:09.954Z,24.70
2019-05-10T11:18:33.093Z,25.10
2019-05-10T11:21:03.909Z,25.30
2019-05-10T11:23:39.200Z,25.70
2019-05-10T11:26:07.428Z,25.70
2019-05-10T11:28:43.526Z,24.80
2019-05-10T11:31:11.364Z,24.40
2019-05-10T11:33:47.274Z,23.70
2019-05-10T11:36:15.502Z,23.00
2019-05-10T11:38:47.048Z,22.60
2019-05-10T11:41:22.078Z,22.60
2019-05-10T11:43:50.796Z,22.50
2019-05-10T11:46:21.530Z,22.50
2019-05-10T11:48:51.647Z,23.20
2019-05-10T11:51:22.186Z,23.90
2019-05-10T11:53:55.402Z,24.50
2019-05-10T11:56:27.718Z,24.50
2019-05-10T11:58:58.027Z,24.20
2019-05-10T12:01:29.238Z,24.20
2019-05-10T12:04:02.125Z,24.30
2019-05-10T12:06:34.391Z,24.00
2019-05-10T12:09:06.578Z,23.20
2019-05-10T12:11:40.784Z,22.50
2019-05-10T12:14:13.873Z,21.80
2019-05-10T12:16:42.289Z,21.60
2019-05-10T12:19:19.878Z,21.40
2019-05-10T12:21:45.531Z,21.30
2019-05-10T12:24:33.649Z,21.10
2019-05-10T12:29:21.423Z,20.70
2019-05-10T12:31:55.949Z,20.70
2019-05-10T12:34:25.666Z,20.60
2019-05-10T12:37:06.312Z,20.30
2019-05-10T12:39:32.227Z,20.10
2019-05-10T12:42:03.388Z,20.00
2019-05-10T12:44:38.816Z,20.40
2019-05-10T12:47:06.707Z,21.10
2019-05-10T12:49:37.230Z,21.60
2019-05-10T12:52:09.207Z,21.30
2019-05-10T12:54:41.499Z,21.40
2019-05-10T12:57:13.341Z,21.40
2019-05-10T12:59:44.305Z,22.20
2019-05-10T13:02:15.431Z,22.80
2019-05-10T13:04:47.325Z,22.60
2019-05-10T13:07:17.789Z,22.40
2019-05-10T13:09:50.164Z,22.60
2019-05-10T13:12:20.963Z,21.80
2019-05-10T13:14:52.815Z,22.40
2019-05-10T13:17:24.328Z,23.50
2019-05-10T13:19:58.488Z,24.30
2019-05-10T13:22:32.661Z,24.60
2019-05-10T13:24:59.650Z,23.80
2019-05-10T13:27:31.411Z,23.00
2019-05-10T13:30:02.113Z,22.20
2019-05-10T13:32:33.229Z,21.60
2019-05-10T13:35:05.092Z,21.30
2019-05-10T13:37:37.257Z,21.20
2019-05-10T13:40:08.651Z,20.90
2019-05-10T13:42:43.637Z,21.10
2019-05-10T13:45:15.807Z,22.10
2019-05-10T13:47:46.670Z,22.90
2019-05-10T13:50:17.023Z,23.60
2019-05-10T13:52:47.607Z,24.20
2019-05-10T13:55:18.363Z,24.50
2019-05-10T13:57:48.810Z,24.60
2019-05-10T14:00:20.069Z,25.40
2019-05-10T14:02:50.773Z,25.60
2019-05-10T14:05:20.504Z,25.70
2019-05-10T14:07:52.926Z,25.50
2019-05-10T14:10:25.166Z,25.70
2019-05-10T14:13:02.122Z,26.10
2019-05-10T14:15:28.554Z,26.50
2019-05-10T14:17:59.080Z,26.50
2019-05-10T14:20:30.240Z,26.50
2019-05-10T14:23:01.189Z,26.70
2019-05-10T14:25:36.440Z,26.60
2019-05-10T14:28:09.589Z,26.70
2019-05-10T14:30:37.286Z,26.80
2019-05-10T14:33:08.900Z,27.20
2019-05-10T14:35:40.806Z,27.30
2019-05-10T14:38:11.744Z,27.30
2019-05-10T14:40:43.123Z,26.60
2019-05-10T14:43:14.044Z,25.90
2019-05-10T14:45:44.176Z,26.00
2019-05-10T14:48:14.982Z,25.40
2019-05-10T14:50:46.946Z,24.70
2019-05-10T14:53:20.052Z,24.00
2019-05-10T14:55:51.230Z,23.80
2019-05-10T14:58:21.663Z,23.90
2019-05-10T15:00:52.895Z,23.90
2019-05-10T15:03:23.646Z,23.90
2019-05-10T15:05:57.560Z,23.40
2019-05-10T15:08:26.555Z,23.00
2019-05-10T15:10:57.910Z,22.70
2019-05-10T15:13:28.539Z,22.30
2019-05-10T15:15:59.791Z,21.90
2019-05-10T15:18:30.945Z,21.30
2019-05-10T15:21:02.286Z,20.90
2019-05-10T15:23:32.871Z,20.60
2019-05-10T15:26:11.439Z,20.40
2019-05-10T15:28:40.334Z,20.30
2019-05-10T15:31:09.351Z,20.20
2019-05-10T15:33:40.300Z,20.10
2019-05-10T15:36:10.567Z,20.00
2019-05-10T15:38:49.925Z,19.80
2019-05-10T15:41:16.993Z,19.70
2019-05-10T15:43:48.862Z,19.50
2019-05-10T15:46:23.089Z,19.40
2019-05-10T15:48:52.295Z,19.40
2019-05-10T15:51:35.175Z,19.50
2019-05-10T15:54:03.657Z,19.70
2019-05-10T15:56:28.894Z,19.70
2019-05-10T15:58:59.344Z,19.80
2019-05-10T16:01:29.831Z,19.80
2019-05-10T16:04:00.001Z,19.80
2019-05-10T16:06:32.496Z,19.80
2019-05-10T16:09:16.421Z,19.80
2019-05-10T16:11:36.521Z,19.70
2019-05-10T16:14:07.881Z,19.70
2019-05-10T16:16:39.771Z,19.70
2019-05-10T16:19:12.963Z,19.60
2019-05-10T16:21:46.752Z,19.60
2019-05-10T16:24:25.346Z,19.60
2019-05-10T16:26:49.159Z,19.70
2019-05-10T16:29:19.613Z,19.90
2019-05-10T16:31:50.624Z,20.00
2019-05-10T16:34:26.596Z,20.00
2019-05-10T16:36:54.580Z,19.90
2019-05-10T16:39:25.695Z,19.70
2019-05-10T16:41:56.853Z,19.70
2019-05-10T16:44:29.028Z,19.80
2019-05-10T16:46:59.763Z,19.80
2019-05-10T16:49:30.503Z,19.80
2019-05-10T16:52:01.455Z,19.90
2019-05-10T16:54:32.577Z,19.90
2019-05-10T16:57:03.371Z,19.80
2019-05-10T16:59:35.275Z,19.60
2019-05-10T17:02:06.477Z,19.40
2019-05-10T17:04:37.534Z,19.20
2019-05-10T17:07:13.099Z,19.10
2019-05-10T17:09:41.303Z,18.90
2019-05-10T17:12:11.446Z,18.80
2019-05-10T17:14:42.600Z,18.70
2019-05-10T17:17:13.734Z,18.80
2019-05-10T17:19:44.756Z,18.80
2019-05-10T17:22:15.560Z,18.80
2019-05-10T17:24:46.087Z,18.80
2019-05-10T17:27:17.522Z,18.70
2019-05-10T17:29:49.856Z,18.60
2019-05-10T17:32:24.869Z,18.50
2019-05-10T17:34:53.141Z,18.40
2019-05-10T17:37:23.776Z,18.30
2019-05-10T17:39:54.326Z,18.20
2019-05-10T17:42:25.218Z,18.20
2019-05-10T17:45:01.922Z,18.20
2019-05-10T17:47:32.203Z,18.20
2019-05-10T17:50:01.464Z,18.20
2019-05-10T17:52:32.029Z,18.20
2019-05-10T17:55:02.699Z,18.10
2019-05-10T17:57:33.572Z,18.10
2019-05-10T18:00:04.483Z,18.10
2019-05-10T18:02:35.632Z,18.00
2019-05-10T18:05:08.274Z,18.00
2019-05-10T18:07:39.192Z,18.00
2019-05-10T18:10:11.950Z,17.90
2019-05-10T18:12:42.437Z,17.90
2019-05-10T18:15:13.627Z,17.80
2019-05-10T18:17:44.987Z,17.80
2019-05-10T18:20:17.768Z,17.70
2019-05-10T18:22:47.899Z,17.60
2019-05-10T18:25:20.142Z,17.60
2019-05-10T18:27:50.973Z,17.50
2019-05-10T18:30:21.755Z,17.40
2019-05-10T18:32:54.537Z,17.30
2019-05-10T18:35:25.272Z,17.30
2019-05-10T18:37:59.756Z,17.20
2019-05-10T18:40:31.745Z,17.10
2019-05-10T18:43:04.044Z,17.00
2019-05-10T18:45:33.744Z,16.90
2019-05-10T18:48:04.003Z,16.80
2019-05-10T18:50:39.658Z,16.70
2019-05-10T18:53:07.821Z,16.60
2019-05-10T18:55:38.285Z,16.50
2019-05-10T18:58:09.297Z,16.40
2019-05-10T19:00:40.248Z,16.30
2019-05-10T19:03:11.567Z,16.30
2019-05-10T19:05:42.465Z,16.20
2019-05-10T19:08:13.077Z,16.10
2019-05-10T19:10:44.217Z,16.10
2019-05-10T19:13:15.311Z,16.10
2019-05-10T19:15:52.084Z,16.10
2019-05-10T19:18:23.221Z,16.10
2019-05-10T19:20:53.336Z,16.00
2019-05-10T19:23:24.201Z,16.00
2019-05-10T19:25:54.532Z,16.00
2019-05-10T19:28:27.321Z,15.90
2019-05-10T19:31:00.548Z,15.90
2019-05-10T19:33:36.632Z,15.80
2019-05-10T19:36:12.472Z,15.80
2019-05-10T19:38:36.887Z,15.80
2019-05-10T19:41:07.616Z,15.80
2019-05-10T19:43:38.227Z,15.80
2019-05-10T19:46:09.048Z,15.80
2019-05-10T19:48:39.562Z,15.90
2019-05-10T19:51:11.567Z,15.80
2019-05-10T19:53:45.286Z,15.80
2019-05-10T19:56:15.907Z,15.80
2019-05-10T19:58:49.073Z,15.80
2019-05-10T20:01:17.783Z,15.80
2019-05-10T20:03:48.690Z,15.80
2019-05-10T20:06:19.666Z,15.80
2019-05-10T20:08:50.668Z,15.80
2019-05-10T20:11:20.987Z,15.80
2019-05-10T20:13:53.390Z,15.80
2019-05-10T20:16:23.894Z,15.80
2019-05-10T20:18:55.249Z,15.80
2019-05-10T20:21:26.410Z,15.80
2019-05-10T20:23:57.022Z,15.90
2019-05-10T20:26:28.022Z,15.90
2019-05-10T20:28:58.824Z,15.90
2019-05-10T20:31:30.687Z,15.80
2019-05-10T20:34:01.978Z,15.80
2019-05-10T20:36:32.388Z,15.80
2019-05-10T20:39:04.026Z,15.70
2019-05-10T20:41:35.213Z,15.70
2019-05-10T20:44:05.742Z,15.70
2019-05-10T20:46:36.042Z,15.60
2019-05-10T20:49:05.906Z,15.60
2019-05-10T20:51:37.104Z,15.60
2019-05-10T20:54:08.178Z,15.60
2019-05-10T20:56:39.152Z,15.50
2019-05-10T20:59:10.070Z,15.50
2019-05-10T21:01:40.621Z,15.50
2019-05-10T21:04:11.498Z,15.50
2019-05-10T21:06:42.098Z,15.50
2019-05-10T21:09:12.482Z,15.50
2019-05-10T21:11:43.644Z,15.50
2019-05-10T21:14:14.781Z,15.50
2019-05-10T21:16:45.259Z,15.40
2019-05-10T21:19:19.693Z,15.40
2019-05-10T21:21:49.656Z,15.40
2019-05-10T21:24:20.212Z,15.40
2019-05-10T21:26:51.333Z,15.40
2019-05-10T21:29:22.216Z,15.40
2019-05-10T21:31:52.820Z,15.40
2019-05-10T21:34:23.549Z,15.30
2019-05-10T21:36:54.903Z,15.30
2019-05-10T21:39:26.053Z,15.30
2019-05-10T21:41:56.407Z,15.20
2019-05-10T21:44:27.311Z,15.20
2019-05-10T21:46:58.264Z,15.20
2019-05-10T21:49:29.414Z,15.20
2019-05-10T21:52:00.363Z,15.20
2019-05-10T21:54:31.246Z,15.10
2019-05-10T21:57:02.653Z,15.10
2019-05-10T21:59:33.804Z,15.10
2019-05-10T22:02:05.161Z,15.00
2019-05-10T22:04:35.895Z,15.00
2019-05-10T22:07:07.249Z,15.00
2019-05-10T22:09:40.647Z,15.00
2019-05-10T22:12:11.793Z,14.80
2019-05-10T22:14:42.262Z,14.70
2019-05-10T22:17:13.275Z,14.70
2019-05-10T22:19:43.277Z,14.60
2019-05-10T22:22:13.990Z,14.60
2019-05-10T22:24:43.979Z,14.60
2019-05-10T22:27:14.794Z,14.60
2019-05-10T22:29:45.525Z,14.60
2019-05-10T22:32:16.017Z,14.60
2019-05-10T22:34:46.530Z,14.60
2019-05-10T22:37:18.767Z,14.50
2019-05-10T22:39:49.643Z,14.50
2019-05-10T22:42:21.067Z,14.40
2019-05-10T22:44:52.218Z,14.40
2019-05-10T22:47:25.372Z,14.30
2019-05-10T22:49:56.149Z,14.30
2019-05-10T22:52:26.234Z,14.20
2019-05-10T22:54:59.962Z,14.20
2019-05-10T22:57:28.928Z,14.10
2019-05-10T22:59:59.463Z,14.10
2019-05-10T23:02:30.255Z,14.10
2019-05-10T23:05:00.999Z,14.10
2019-05-10T23:07:31.478Z,14.00
2019-05-10T23:10:01.575Z,14.00
2019-05-10T23:12:32.159Z,14.00
2019-05-10T23:15:03.333Z,14.00
2019-05-10T23:17:34.419Z,14.00
2019-05-10T23:20:05.549Z,13.90
2019-05-10T23:22:36.577Z,13.90
2019-05-10T23:25:08.346Z,13.80
2019-05-10T23:27:39.265Z,13.80
2019-05-10T23:30:11.792Z,13.80
2019-05-10T23:32:45.204Z,13.90
2019-05-10T23:35:15.386Z,13.90
2019-05-10T23:37:45.913Z,13.90
2019-05-10T23:40:16.581Z,13.80
2019-05-10T23:42:47.186Z,13.80
2019-05-10T23:45:18.345Z,13.80
2019-05-10T23:47:49.070Z,13.80
2019-05-10T23:50:19.815Z,13.80
2019-05-10T23:52:50.748Z,13.80
2019-05-10T23:55:21.079Z,13.80
2019-05-10T23:57:52.225Z,13.90
